Time;durP1;ratioP1;P1;durP2;ratioP2;P2;SDS_P1;SDS_P2;PMS_P1;PMS_P2;Temp;Humidity;BMP_temperature;BMP_pressure;BME280_temperature;BME280_humidity;BME280_pressure;Samples;Min_cycle;Max_cycle;Signal;HPM_P1;HPM_P2
2024/02/17 00:02:15;;;;;;;;;;;16.30;91.90;;;;;;4090712;28;20005;-48
2024/02/17 00:04:56;;;;;;;;;;;16.30;92.00;;;;;;4076259;29;19933;-49
2024/02/17 00:07:38;;;;;;;;;;;16.30;92.00;;;;;;4078045;28;19934;-46
2024/02/17 00:10:18;;;;;;;;;;;16.30;92.00;;;;;;4091127;28;20122;-48
2024/02/17 00:13:00;;;;;;;;;;;16.30;92.10;;;;;;4076263;28;19942;-47
2024/02/17 00:15:41;;;;;;;;;;;16.30;92.10;;;;;;4090397;28;19929;-42
2024/02/17 00:18:26;;;;;;;;;;;16.30;92.10;;;;;;4085434;28;20394;-42
2024/02/17 00:21:07;;;;;;;;;;;16.20;92.10;;;;;;4090787;28;19938;-42
2024/02/17 00:23:48;;;;;;;;;;;16.30;92.10;;;;;;4090785;28;20378;-48
2024/02/17 00:26:29;;;;;;;;;;;16.20;92.10;;;;;;4090756;28;20085;-43
2024/02/17 00:29:11;;;;;;;;;;;16.20;92.10;;;;;;4091080;28;20387;-44
2024/02/17 00:31:52;;;;;;;;;;;16.30;92.20;;;;;;4090480;28;20259;-44
2024/02/17 00:34:32;;;;;;;;;;;16.20;92.20;;;;;;4091092;28;19978;-50
2024/02/17 00:37:15;;;;;;;;;;;16.20;92.20;;;;;;4090690;28;19929;-50
2024/02/17 00:39:57;;;;;;;;;;;16.20;92.20;;;;;;4079234;28;19929;-51
2024/02/17 00:42:37;;;;;;;;;;;16.20;92.20;;;;;;4090687;28;19976;-49
2024/02/17 00:45:20;;;;;;;;;;;16.20;92.20;;;;;;4075389;29;19978;-49
2024/02/17 00:48:00;;;;;;;;;;;16.20;92.30;;;;;;4074976;29;19937;-50
2024/02/17 00:50:41;;;;;;;;;;;16.20;92.30;;;;;;4080198;28;20013;-48
2024/02/17 00:53:22;;;;;;;;;;;16.10;92.30;;;;;;4089106;28;20276;-49
2024/02/17 00:56:03;;;;;;;;;;;16.20;92.30;;;;;;4090065;28;20659;-44
2024/02/17 00:58:44;;;;;;;;;;;16.20;92.40;;;;;;4090074;28;20008;-43
2024/02/17 01:01:28;;;;;;;;;;;16.20;92.40;;;;;;4090339;28;20057;-44
2024/02/17 01:04:12;;;;;;;;;;;16.10;92.30;;;;;;4089553;28;19933;-42
2024/02/17 01:06:53;;;;;;;;;;;16.10;92.30;;;;;;4089616;28;20061;-43
2024/02/17 01:09:34;;;;;;;;;;;16.10;92.40;;;;;;4090258;28;19930;-43
2024/02/17 01:12:15;;;;;;;;;;;16.10;92.40;;;;;;4073901;29;19937;-42
2024/02/17 01:14:57;;;;;;;;;;;16.10;92.40;;;;;;4088606;28;19933;-43
2024/02/17 01:17:39;;;;;;;;;;;16.10;92.40;;;;;;4088756;28;19933;-43
2024/02/17 01:20:20;;;;;;;;;;;16.10;92.40;;;;;;4089926;28;19934;-44
2024/02/17 01:23:00;;;;;;;;;;;16.10;92.50;;;;;;4088925;28;19945;-47
2024/02/17 01:25:41;;;;;;;;;;;16.00;92.50;;;;;;4074852;28;20682;-49
2024/02/17 01:28:22;;;;;;;;;;;16.00;92.50;;;;;;4061511;28;20410;-47
2024/02/17 01:31:03;;;;;;;;;;;16.00;92.50;;;;;;4086244;28;20077;-50
2024/02/17 01:33:48;;;;;;;;;;;16.10;92.50;;;;;;4089563;28;20327;-52
2024/02/17 01:36:29;;;;;;;;;;;16.00;92.50;;;;;;4087587;28;19933;-50
2024/02/17 01:39:10;;;;;;;;;;;16.00;92.50;;;;;;4075724;28;19929;-46
2024/02/17 01:41:51;;;;;;;;;;;16.00;92.50;;;;;;4089016;28;20294;-47
2024/02/17 01:44:32;;;;;;;;;;;16.00;92.60;;;;;;4090040;28;20288;-47
2024/02/17 01:47:13;;;;;;;;;;;16.00;92.60;;;;;;4090263;28;19957;-47
2024/02/17 01:49:56;;;;;;;;;;;16.00;92.60;;;;;;4084942;28;19934;-48
2024/02/17 01:52:36;;;;;;;;;;;16.00;92.60;;;;;;4089085;28;20053;-47
2024/02/17 01:55:19;;;;;;;;;;;16.00;92.60;;;;;;4090238;28;20303;-46
2024/02/17 01:58:00;;;;;;;;;;;16.00;92.60;;;;;;4073742;29;19933;-49
2024/02/17 02:00:41;;;;;;;;;;;16.00;92.60;;;;;;4074050;29;19930;-48
2024/02/17 02:03:22;;;;;;;;;;;16.00;92.60;;;;;;4075039;28;19980;-49
2024/02/17 02:06:04;;;;;;;;;;;16.00;92.60;;;;;;4089338;28;20061;-44
2024/02/17 02:08:45;;;;;;;;;;;15.90;92.60;;;;;;4088907;28;20357;-43
2024/02/17 02:11:26;;;;;;;;;;;15.90;92.60;;;;;;4073466;29;20386;-43
2024/02/17 02:14:13;;;;;;;;;;;15.90;92.60;;;;;;4082235;28;19937;-43
2024/02/17 02:16:54;;;;;;;;;;;15.90;92.60;;;;;;4089693;28;19949;-44
2024/02/17 02:19:35;;;;;;;;;;;15.90;92.70;;;;;;4088059;28;20077;-44
2024/02/17 02:22:17;;;;;;;;;;;15.90;92.70;;;;;;4089055;28;19930;-43
2024/02/17 02:24:59;;;;;;;;;;;15.90;92.70;;;;;;4089287;28;19976;-44
2024/02/17 02:27:42;;;;;;;;;;;15.90;92.70;;;;;;4087037;28;19929;-44
2024/02/17 02:30:22;;;;;;;;;;;15.90;92.70;;;;;;4088886;28;19953;-44
2024/02/17 02:33:03;;;;;;;;;;;15.90;92.70;;;;;;4089135;28;20276;-48
2024/02/17 02:35:45;;;;;;;;;;;15.90;92.70;;;;;;4072612;29;19994;-49
2024/02/17 02:38:26;;;;;;;;;;;15.80;92.70;;;;;;4073101;29;19942;-47
2024/02/17 02:41:06;;;;;;;;;;;15.90;92.70;;;;;;4073498;29;19973;-43
2024/02/17 02:43:49;;;;;;;;;;;15.80;92.70;;;;;;4076040;28;19992;-42
2024/02/17 02:46:29;;;;;;;;;;;15.90;92.70;;;;;;4088647;28;20066;-43
2024/02/17 02:49:10;;;;;;;;;;;15.80;92.70;;;;;;4073285;29;19930;-43
2024/02/17 02:51:51;;;;;;;;;;;15.80;92.70;;;;;;4074004;29;20062;-44
2024/02/17 02:54:32;;;;;;;;;;;15.80;92.70;;;;;;4088823;29;19948;-43
2024/02/17 02:57:12;;;;;;;;;;;15.80;92.70;;;;;;4089150;28;19933;-43
2024/02/17 02:59:55;;;;;;;;;;;15.80;92.70;;;;;;4089165;28;20584;-43
2024/02/17 03:02:36;;;;;;;;;;;15.80;92.70;;;;;;4089604;28;19930;-43
2024/02/17 03:05:17;;;;;;;;;;;15.80;92.70;;;;;;4089135;28;20275;-42
2024/02/17 03:07:59;;;;;;;;;;;15.80;92.80;;;;;;4088982;28;20407;-43
2024/02/17 03:10:40;;;;;;;;;;;15.70;92.70;;;;;;4089457;28;19928;-44
2024/02/17 03:13:21;;;;;;;;;;;15.80;92.80;;;;;;4076523;28;20295;-44
2024/02/17 03:16:04;;;;;;;;;;;15.80;92.80;;;;;;4089331;28;19933;-43
2024/02/17 03:18:45;;;;;;;;;;;15.80;92.80;;;;;;4088718;28;19933;-43
2024/02/17 03:21:26;;;;;;;;;;;15.70;92.70;;;;;;4088762;28;20069;-44
2024/02/17 03:24:07;;;;;;;;;;;15.70;92.70;;;;;;4088307;28;19953;-43
2024/02/17 03:26:48;;;;;;;;;;;15.70;92.80;;;;;;4088621;28;20077;-44
2024/02/17 03:29:29;;;;;;;;;;;15.70;92.80;;;;;;4088812;28;19933;-42
2024/02/17 03:32:11;;;;;;;;;;;15.70;92.80;;;;;;4088714;28;19938;-43
2024/02/17 03:34:52;;;;;;;;;;;15.70;92.80;;;;;;4088365;28;19932;-43
2024/02/17 03:37:33;;;;;;;;;;;15.70;92.80;;;;;;4088454;28;20066;-42
2024/02/17 03:40:14;;;;;;;;;;;15.70;92.80;;;;;;4076441;28;19930;-43
2024/02/17 03:42:55;;;;;;;;;;;15.70;92.80;;;;;;4098947;28;19933;-42
2024/02/17 03:45:36;;;;;;;;;;;15.70;92.80;;;;;;4072722;29;19933;-43
2024/02/17 03:48:18;;;;;;;;;;;15.70;92.80;;;;;;4067298;29;20340;-44
2024/02/17 03:51:00;;;;;;;;;;;15.70;92.90;;;;;;4073084;29;20287;-42
2024/02/17 03:53:41;;;;;;;;;;;15.70;92.90;;;;;;4078791;28;19989;-42
2024/02/17 03:56:22;;;;;;;;;;;15.70;92.80;;;;;;4089066;28;19974;-42
2024/02/17 03:59:02;;;;;;;;;;;15.60;92.80;;;;;;4088854;28;20655;-43
2024/02/17 04:01:43;;;;;;;;;;;15.60;92.90;;;;;;4073921;29;19934;-46
2024/02/17 04:04:25;;;;;;;;;;;15.60;92.90;;;;;;4086950;28;19929;-49
2024/02/17 04:07:06;;;;;;;;;;;15.60;92.90;;;;;;4091834;28;20402;-46
2024/02/17 04:09:47;;;;;;;;;;;15.60;92.90;;;;;;4091300;28;19933;-44
2024/02/17 04:12:27;;;;;;;;;;;15.60;92.90;;;;;;4075709;29;19982;-44
2024/02/17 04:15:09;;;;;;;;;;;15.60;92.90;;;;;;4072700;28;19933;-44
2024/02/17 04:17:50;;;;;;;;;;;15.60;92.90;;;;;;4079455;29;20387;-44
2024/02/17 04:20:32;;;;;;;;;;;15.60;92.90;;;;;;4086952;28;19938;-44
2024/02/17 04:23:13;;;;;;;;;;;15.60;92.90;;;;;;4090938;28;20472;-43
2024/02/17 04:25:56;;;;;;;;;;;15.60;92.90;;;;;;4091399;28;19945;-44
2024/02/17 04:28:37;;;;;;;;;;;15.60;92.90;;;;;;4091007;28;19934;-43
2024/02/17 04:31:18;;;;;;;;;;;15.60;92.90;;;;;;4091140;28;19929;-43
2024/02/17 04:33:59;;;;;;;;;;;15.60;92.90;;;;;;4090710;28;20057;-45
2024/02/17 04:36:42;;;;;;;;;;;15.70;92.90;;;;;;4091050;28;19929;-43
2024/02/17 04:39:24;;;;;;;;;;;15.70;92.80;;;;;;4075405;29;19930;-45
2024/02/17 04:42:05;;;;;;;;;;;15.70;92.80;;;;;;4074705;29;20288;-44
2024/02/17 04:44:46;;;;;;;;;;;15.70;92.70;;;;;;4059679;29;19934;-42
2024/02/17 04:47:26;;;;;;;;;;;15.70;92.60;;;;;;4059506;29;19930;-43
2024/02/17 04:50:07;;;;;;;;;;;15.70;92.60;;;;;;4059545;29;19930;-43
2024/02/17 04:52:50;;;;;;;;;;;15.70;92.60;;;;;;4060042;29;19930;-43
2024/02/17 04:55:30;;;;;;;;;;;15.70;92.60;;;;;;4074852;29;19929;-43
2024/02/17 04:58:16;;;;;;;;;;;15.70;92.60;;;;;;4075455;29;19930;-45
2024/02/17 05:00:57;;;;;;;;;;;15.70;92.60;;;;;;4061488;29;20088;-43
2024/02/17 05:03:39;;;;;;;;;;;15.70;92.60;;;;;;4075366;29;20055;-42
2024/02/17 05:06:22;;;;;;;;;;;15.70;92.50;;;;;;4075270;29;19929;-43
2024/02/17 05:09:03;;;;;;;;;;;15.70;92.40;;;;;;4062781;29;20093;-42
2024/02/17 05:11:45;;;;;;;;;;;15.80;92.30;;;;;;4074728;29;19929;-43
2024/02/17 05:14:27;;;;;;;;;;;15.80;92.30;;;;;;4074186;29;19965;-44
2024/02/17 05:17:07;;;;;;;;;;;15.80;92.20;;;;;;4074232;29;19929;-46
2024/02/17 05:19:48;;;;;;;;;;;15.80;92.20;;;;;;4062447;29;19933;-43
2024/02/17 05:22:29;;;;;;;;;;;15.70;92.20;;;;;;4074792;29;20312;-43
2024/02/17 05:25:11;;;;;;;;;;;15.70;92.10;;;;;;4058254;29;19969;-43
2024/02/17 05:27:51;;;;;;;;;;;15.70;92.10;;;;;;4058746;29;20605;-42
2024/02/17 05:30:33;;;;;;;;;;;15.70;92.20;;;;;;4058671;29;19930;-43
2024/02/17 05:33:13;;;;;;;;;;;15.70;92.20;;;;;;4066897;29;19945;-43
2024/02/17 05:35:54;;;;;;;;;;;15.60;92.20;;;;;;4074187;29;19933;-49
2024/02/17 05:38:35;;;;;;;;;;;15.60;92.30;;;;;;4076232;28;20415;-46
2024/02/17 05:41:17;;;;;;;;;;;15.60;92.30;;;;;;4089924;28;19979;-47
2024/02/17 05:43:58;;;;;;;;;;;15.70;92.30;;;;;;4089598;28;19981;-46
2024/02/17 05:46:38;;;;;;;;;;;15.70;92.20;;;;;;4089385;28;20074;-48
2024/02/17 05:49:21;;;;;;;;;;;15.70;92.10;;;;;;4089158;28;19933;-47
2024/02/17 05:52:02;;;;;;;;;;;15.70;92.10;;;;;;4089792;28;19934;-42
2024/02/17 05:54:43;;;;;;;;;;;15.70;92.10;;;;;;4073727;29;19930;-44
2024/02/17 05:57:26;;;;;;;;;;;15.80;92.20;;;;;;4062084;29;19930;-44
2024/02/17 06:00:08;;;;;;;;;;;15.80;92.10;;;;;;4079814;28;19973;-43
2024/02/17 06:02:48;;;;;;;;;;;15.80;92.00;;;;;;4089855;28;19938;-43
2024/02/17 06:05:32;;;;;;;;;;;15.90;91.90;;;;;;4089678;28;19933;-44
2024/02/17 06:08:13;;;;;;;;;;;15.90;91.80;;;;;;4090035;28;20054;-43
2024/02/17 06:10:53;;;;;;;;;;;15.90;91.70;;;;;;4089625;28;19929;-45
2024/02/17 06:13:36;;;;;;;;;;;15.90;91.70;;;;;;4081987;28;20323;-50
2024/02/17 06:16:18;;;;;;;;;;;15.90;91.70;;;;;;4089561;28;19938;-48
2024/02/17 06:21:58;;;;;;;;;;;16.00;91.70;;;;;;4088657;28;20051;-48
2024/02/17 06:24:39;;;;;;;;;;;15.90;91.70;;;;;;4073196;29;19965;-46
2024/02/17 06:27:19;;;;;;;;;;;16.00;91.70;;;;;;4073477;29;19930;-46
2024/02/17 06:30:02;;;;;;;;;;;15.90;91.70;;;;;;4073417;29;20288;-47
2024/02/17 06:32:43;;;;;;;;;;;15.90;92.10;;;;;;4088248;28;19933;-47
2024/02/17 06:35:23;;;;;;;;;;;16.00;91.70;;;;;;4089362;28;19930;-46
2024/02/17 06:38:05;;;;;;;;;;;16.00;91.60;;;;;;4082726;28;20391;-47
2024/02/17 06:40:46;;;;;;;;;;;16.00;91.60;;;;;;4089242;28;19949;-47
2024/02/17 06:43:27;;;;;;;;;;;16.00;91.50;;;;;;4089531;28;19933;-42
2024/02/17 06:46:11;;;;;;;;;;;16.00;91.50;;;;;;4081929;28;19929;-43
2024/02/17 06:48:53;;;;;;;;;;;16.00;91.90;;;;;;4088945;28;19933;-43
2024/02/17 06:51:34;;;;;;;;;;;16.00;91.50;;;;;;4088831;28;20677;-42
2024/02/17 06:54:15;;;;;;;;;;;16.00;91.50;;;;;;4072889;29;19985;-42
2024/02/17 06:56:57;;;;;;;;;;;15.90;91.50;;;;;;4075003;28;19933;-43
2024/02/17 06:59:38;;;;;;;;;;;16.00;91.60;;;;;;4088582;28;19929;-50
2024/02/17 07:02:22;;;;;;;;;;;15.90;91.70;;;;;;4088578;28;20050;-48
2024/02/17 07:05:05;;;;;;;;;;;16.00;91.70;;;;;;4097377;28;20016;-47
2024/02/17 07:07:46;;;;;;;;;;;15.90;91.60;;;;;;4089366;28;19977;-42
2024/02/17 07:10:27;;;;;;;;;;;16.00;91.60;;;;;;4089194;28;20299;-43
2024/02/17 07:13:09;;;;;;;;;;;16.00;91.50;;;;;;4079573;28;19930;-42
2024/02/17 07:15:50;;;;;;;;;;;16.00;91.50;;;;;;4087888;28;19955;-42
2024/02/17 07:18:33;;;;;;;;;;;16.00;91.80;;;;;;4072936;29;20070;-47
2024/02/17 07:21:14;;;;;;;;;;;15.90;91.40;;;;;;4072367;29;19934;-43
2024/02/17 07:23:55;;;;;;;;;;;16.00;91.40;;;;;;4078472;28;19950;-42
2024/02/17 07:26:40;;;;;;;;;;;16.00;91.50;;;;;;4085286;28;19993;-43
2024/02/17 07:29:21;;;;;;;;;;;16.00;91.50;;;;;;4089089;28;19929;-42
2024/02/17 07:32:02;;;;;;;;;;;16.00;91.40;;;;;;4076225;28;20031;-42
2024/02/17 07:34:44;;;;;;;;;;;16.10;91.40;;;;;;4089019;28;19933;-41
2024/02/17 07:37:25;;;;;;;;;;;16.10;91.30;;;;;;4090731;28;19930;-49
2024/02/17 07:40:08;;;;;;;;;;;16.10;91.20;;;;;;4069422;29;19933;-41
2024/02/17 07:42:49;;;;;;;;;;;16.10;91.00;;;;;;4082961;28;20139;-41
2024/02/17 07:45:29;;;;;;;;;;;16.10;90.90;;;;;;4090855;28;19934;-41
2024/02/17 07:48:10;;;;;;;;;;;16.10;90.60;;;;;;4091566;28;20308;-41
2024/02/17 07:50:52;;;;;;;;;;;16.10;90.20;;;;;;4091810;28;19949;-44
2024/02/17 07:53:33;;;;;;;;;;;16.20;89.60;;;;;;4089640;28;19940;-46
2024/02/17 07:56:14;;;;;;;;;;;16.20;89.00;;;;;;4078857;28;19981;-45
2024/02/17 07:58:55;;;;;;;;;;;16.20;88.00;;;;;;4074797;28;20403;-46
2024/02/17 08:01:35;;;;;;;;;;;16.10;87.00;;;;;;4075561;29;20296;-46
2024/02/17 08:04:16;;;;;;;;;;;16.10;86.50;;;;;;4088188;28;19938;-45
2024/02/17 08:06:59;;;;;;;;;;;16.10;85.80;;;;;;4088715;28;19929;-41
2024/02/17 08:09:41;;;;;;;;;;;16.10;84.90;;;;;;4090807;28;20391;-41
2024/02/17 08:12:23;;;;;;;;;;;16.10;84.50;;;;;;4079354;28;19938;-45
2024/02/17 08:15:06;;;;;;;;;;;16.10;84.00;;;;;;4088925;28;19941;-49
2024/02/17 08:17:47;;;;;;;;;;;16.10;83.70;;;;;;4074962;29;19977;-48
2024/02/17 08:20:28;;;;;;;;;;;16.00;83.60;;;;;;4088613;28;20062;-45
2024/02/17 08:23:11;;;;;;;;;;;16.00;83.50;;;;;;4090493;28;19996;-46
2024/02/17 08:25:51;;;;;;;;;;;16.00;83.50;;;;;;4095463;28;19933;-41
2024/02/17 08:28:32;;;;;;;;;;;15.90;83.40;;;;;;4089087;28;19933;-41
2024/02/17 08:31:13;;;;;;;;;;;15.90;83.40;;;;;;4097302;28;20681;-46
2024/02/17 08:33:54;;;;;;;;;;;15.90;83.20;;;;;;4080977;28;19929;-47
2024/02/17 08:36:38;;;;;;;;;;;15.90;83.40;;;;;;4090956;28;19932;-41
2024/02/17 08:39:20;;;;;;;;;;;15.90;83.50;;;;;;4089042;28;19930;-41
2024/02/17 08:42:00;;;;;;;;;;;15.90;83.20;;;;;;4090568;28;19932;-41
2024/02/17 08:44:41;;;;;;;;;;;16.00;84.10;;;;;;4091173;28;19949;-41
2024/02/17 08:47:22;;;;;;;;;;;16.00;82.70;;;;;;4078025;28;19977;-41
2024/02/17 08:50:03;;;;;;;;;;;16.00;82.80;;;;;;4067527;29;20383;-41
2024/02/17 08:52:44;;;;;;;;;;;16.00;82.50;;;;;;4074613;29;19929;-41
2024/02/17 08:55:26;;;;;;;;;;;15.90;82.40;;;;;;4071838;29;19929;-41
2024/02/17 08:58:07;;;;;;;;;;;15.90;82.50;;;;;;4090061;28;19933;-41
2024/02/17 09:00:48;;;;;;;;;;;15.90;82.30;;;;;;4090434;28;19929;-41
2024/02/17 09:03:30;;;;;;;;;;;15.90;82.10;;;;;;4077000;28;19932;-41
2024/02/17 09:06:10;;;;;;;;;;;15.80;82.00;;;;;;4078826;28;19933;-41
2024/02/17 09:08:51;;;;;;;;;;;15.80;81.80;;;;;;4062767;29;20070;-41
2024/02/17 09:11:33;;;;;;;;;;;15.70;81.50;;;;;;4079713;28;19929;-41
2024/02/17 09:14:14;;;;;;;;;;;15.70;81.50;;;;;;4079979;28;20304;-41
2024/02/17 09:16:54;;;;;;;;;;;15.70;81.50;;;;;;4078649;28;19929;-40
2024/02/17 09:19:35;;;;;;;;;;;15.60;81.60;;;;;;4088485;28;19937;-40
2024/02/17 09:22:17;;;;;;;;;;;15.60;81.90;;;;;;4090717;28;19929;-40
2024/02/17 09:24:58;;;;;;;;;;;15.60;82.40;;;;;;4089860;28;20045;-41
2024/02/17 09:27:41;;;;;;;;;;;15.60;83.60;;;;;;4090228;28;19929;-44
2024/02/17 09:30:21;;;;;;;;;;;15.60;83.00;;;;;;4074198;28;19929;-45
2024/02/17 09:33:02;;;;;;;;;;;15.60;83.10;;;;;;4076489;28;20065;-46
2024/02/17 09:35:43;;;;;;;;;;;15.50;83.20;;;;;;4090702;28;19941;-45
2024/02/17 09:38:24;;;;;;;;;;;15.60;83.40;;;;;;4092023;28;19933;-45
2024/02/17 09:41:05;;;;;;;;;;;15.70;83.20;;;;;;4093711;28;19934;-43
2024/02/17 09:43:50;;;;;;;;;;;16.10;81.40;;;;;;4095062;28;19929;-40
2024/02/17 09:46:31;;;;;;;;;;;16.60;79.60;;;;;;4091660;28;19953;-40
2024/02/17 09:49:15;;;;;;;;;;;17.20;77.30;;;;;;4088777;28;19933;-40
2024/02/17 09:51:56;;;;;;;;;;;17.70;75.20;;;;;;4089104;28;20041;-40
2024/02/17 09:54:38;;;;;;;;;;;18.30;72.70;;;;;;4085250;28;20066;-40
2024/02/17 09:57:19;;;;;;;;;;;18.80;70.10;;;;;;4079984;28;19997;-40
2024/02/17 10:00:06;;;;;;;;;;;19.30;67.90;;;;;;4087407;28;19969;-40
2024/02/17 10:02:51;;;;;;;;;;;19.70;66.10;;;;;;4100013;28;19933;-40
2024/02/17 10:05:32;;;;;;;;;;;20.10;65.40;;;;;;4087045;28;19929;-46
2024/02/17 10:08:14;;;;;;;;;;;20.30;64.20;;;;;;4090323;28;19933;-44
2024/02/17 10:10:57;;;;;;;;;;;20.30;63.30;;;;;;4102247;28;20410;-46
2024/02/17 10:13:38;;;;;;;;;;;20.40;63.00;;;;;;4086814;28;19980;-47
2024/02/17 10:16:20;;;;;;;;;;;20.40;62.40;;;;;;4092992;28;19933;-44
2024/02/17 10:19:03;;;;;;;;;;;20.20;63.10;;;;;;4074066;28;20386;-41
2024/02/17 10:21:44;;;;;;;;;;;20.10;63.40;;;;;;4088398;28;19977;-41
2024/02/17 10:24:25;;;;;;;;;;;19.90;63.70;;;;;;4086494;28;19972;-41
2024/02/17 10:27:06;;;;;;;;;;;19.90;64.00;;;;;;4087048;28;19976;-40
2024/02/17 10:29:47;;;;;;;;;;;19.80;64.30;;;;;;4087472;28;19938;-40
2024/02/17 10:32:29;;;;;;;;;;;19.80;64.50;;;;;;4095170;28;19949;-40
2024/02/17 10:35:11;;;;;;;;;;;19.80;64.30;;;;;;4086585;28;19941;-40
2024/02/17 10:37:53;;;;;;;;;;;19.80;64.10;;;;;;4075675;28;19936;-44
2024/02/17 10:40:34;;;;;;;;;;;19.80;64.10;;;;;;4087152;28;19933;-44
2024/02/17 10:43:15;;;;;;;;;;;19.80;64.10;;;;;;4087172;28;20029;-43
2024/02/17 10:45:56;;;;;;;;;;;19.80;64.00;;;;;;4093771;28;20088;-40
2024/02/17 10:48:40;;;;;;;;;;;19.80;64.10;;;;;;4097981;28;19932;-39
2024/02/17 10:51:22;;;;;;;;;;;19.90;63.70;;;;;;4106797;28;19984;-39
2024/02/17 10:54:05;;;;;;;;;;;19.90;63.50;;;;;;4088049;28;19948;-41
2024/02/17 10:56:46;;;;;;;;;;;19.80;63.20;;;;;;4087129;28;19933;-40
2024/02/17 10:59:28;;;;;;;;;;;19.80;63.40;;;;;;4075475;28;19929;-40
2024/02/17 11:02:11;;;;;;;;;;;19.60;63.60;;;;;;4086936;28;19937;-39
2024/02/17 11:04:54;;;;;;;;;;;19.50;64.10;;;;;;4102356;28;19949;-40
2024/02/17 11:07:35;;;;;;;;;;;19.40;64.60;;;;;;4092146;28;19933;-40
2024/02/17 11:10:16;;;;;;;;;;;19.40;64.60;;;;;;4084353;28;19932;-40
2024/02/17 11:12:58;;;;;;;;;;;19.40;64.20;;;;;;4088751;28;20386;-40
2024/02/17 11:15:57;;;;;;;;;;;19.50;64.40;;;;;;4093096;28;19933;-40
2024/02/17 11:18:39;;;;;;;;;;;19.50;64.20;;;;;;4103266;28;19969;-39
2024/02/17 11:21:31;;;;;;;;;;;19.50;64.20;;;;;;4094533;28;19930;-40
2024/02/17 11:24:12;;;;;;;;;;;19.60;64.20;;;;;;4092765;28;19968;-40
2024/02/17 11:26:54;;;;;;;;;;;19.50;64.40;;;;;;4074613;28;19933;-40
2024/02/17 11:29:36;;;;;;;;;;;19.50;64.90;;;;;;4089671;28;19968;-40
2024/02/17 11:32:17;;;;;;;;;;;19.40;65.10;;;;;;4088714;28;19980;-40
2024/02/17 11:35:00;;;;;;;;;;;19.30;65.30;;;;;;4089677;28;20298;-40
2024/02/17 11:37:44;;;;;;;;;;;19.20;65.90;;;;;;4077575;28;19933;-40
2024/02/17 11:40:26;;;;;;;;;;;19.20;66.30;;;;;;4087814;28;19953;-40
2024/02/17 11:43:07;;;;;;;;;;;19.30;66.80;;;;;;4089087;28;20288;-40
2024/02/17 11:45:48;;;;;;;;;;;19.30;66.30;;;;;;4092612;28;20299;-40
2024/02/17 11:48:29;;;;;;;;;;;19.40;65.90;;;;;;4089424;28;19972;-39
2024/02/17 11:51:14;;;;;;;;;;;19.40;66.00;;;;;;4092206;28;19933;-40
2024/02/17 11:53:56;;;;;;;;;;;19.40;66.10;;;;;;4094288;28;19937;-40
2024/02/17 11:56:37;;;;;;;;;;;19.30;65.80;;;;;;4089279;28;19988;-40
2024/02/17 11:59:21;;;;;;;;;;;19.30;65.60;;;;;;4089355;28;19930;-40
2024/02/17 12:02:03;;;;;;;;;;;19.30;66.30;;;;;;4089282;28;19933;-40
2024/02/17 12:04:43;;;;;;;;;;;19.30;67.30;;;;;;4099469;28;20414;-40
2024/02/17 12:07:29;;;;;;;;;;;19.20;66.70;;;;;;4088356;28;20484;-41
2024/02/17 12:10:15;;;;;;;;;;;19.20;66.50;;;;;;4089030;28;20000;-40
2024/02/17 12:12:55;;;;;;;;;;;19.10;66.00;;;;;;4090292;28;19938;-40
2024/02/17 12:15:36;;;;;;;;;;;19.00;67.60;;;;;;4089603;28;19933;-40
2024/02/17 12:18:18;;;;;;;;;;;18.90;67.30;;;;;;4089096;28;20889;-40
2024/02/17 12:21:01;;;;;;;;;;;18.90;68.10;;;;;;4092000;28;19932;-40
2024/02/17 12:23:43;;;;;;;;;;;18.90;69.30;;;;;;4092903;28;20548;-40
2024/02/17 12:26:28;;;;;;;;;;;19.00;68.90;;;;;;4084264;28;20896;-40
2024/02/17 12:29:17;;;;;;;;;;;19.00;68.10;;;;;;4081172;28;20011;-40
2024/02/17 12:31:58;;;;;;;;;;;19.10;67.20;;;;;;4100223;28;19933;-40
2024/02/17 12:34:39;;;;;;;;;;;19.20;67.60;;;;;;4088740;28;19930;-40
2024/02/17 12:37:20;;;;;;;;;;;19.30;66.50;;;;;;4098870;28;19933;-40
2024/02/17 12:40:00;;;;;;;;;;;19.40;66.60;;;;;;4098054;28;19985;-40
2024/02/17 12:42:43;;;;;;;;;;;19.50;67.00;;;;;;4101049;28;19929;-40
2024/02/17 12:45:25;;;;;;;;;;;19.60;66.80;;;;;;4089251;28;19997;-40
2024/02/17 12:48:06;;;;;;;;;;;19.60;66.80;;;;;;4088603;28;20300;-41
2024/02/17 12:50:47;;;;;;;;;;;19.60;68.00;;;;;;4088945;28;19985;-40
2024/02/17 12:53:28;;;;;;;;;;;19.60;66.80;;;;;;4092524;28;19941;-40
2024/02/17 12:56:09;;;;;;;;;;;19.60;66.80;;;;;;4100765;28;19933;-40
2024/02/17 12:58:51;;;;;;;;;;;19.60;67.70;;;;;;4088237;28;19929;-48
2024/02/17 13:01:32;;;;;;;;;;;19.60;67.00;;;;;;4088201;28;19945;-45
2024/02/17 13:04:13;;;;;;;;;;;19.60;67.10;;;;;;4089228;28;19981;-40
2024/02/17 13:06:55;;;;;;;;;;;19.50;67.90;;;;;;4088785;28;19984;-45
2024/02/17 13:09:36;;;;;;;;;;;19.40;67.40;;;;;;4090281;28;19933;-45
2024/02/17 13:12:17;;;;;;;;;;;19.30;67.80;;;;;;4076137;28;19932;-45
2024/02/17 13:14:59;;;;;;;;;;;19.30;67.80;;;;;;4096818;28;19933;-45
2024/02/17 13:17:40;;;;;;;;;;;19.30;67.60;;;;;;4089542;28;20017;-46
2024/02/17 13:20:21;;;;;;;;;;;19.40;66.80;;;;;;4105752;28;20358;-46
2024/02/17 13:23:02;;;;;;;;;;;19.50;66.80;;;;;;4105861;28;19981;-43
2024/02/17 13:25:43;;;;;;;;;;;19.50;66.40;;;;;;4096243;28;20057;-41
2024/02/17 13:28:24;;;;;;;;;;;19.40;66.70;;;;;;4090443;28;19933;-40
2024/02/17 13:31:06;;;;;;;;;;;19.50;66.50;;;;;;4087394;28;20402;-41
2024/02/17 13:33:47;;;;;;;;;;;19.50;67.10;;;;;;4091220;28;19936;-40
2024/02/17 13:36:29;;;;;;;;;;;19.50;67.30;;;;;;4097117;28;19929;-40
2024/02/17 13:39:10;;;;;;;;;;;19.50;67.40;;;;;;4081681;28;20264;-40
2024/02/17 13:41:51;;;;;;;;;;;19.50;68.90;;;;;;4086971;28;20032;-40
2024/02/17 13:44:32;;;;;;;;;;;19.50;68.30;;;;;;4087590;28;19957;-40
2024/02/17 13:47:15;;;;;;;;;;;19.40;68.40;;;;;;4098182;28;19934;-40
2024/02/17 13:49:56;;;;;;;;;;;19.30;69.40;;;;;;4090087;28;20041;-41
2024/02/17 13:52:37;;;;;;;;;;;19.30;68.60;;;;;;4102864;28;19933;-40
2024/02/17 13:55:18;;;;;;;;;;;19.30;68.90;;;;;;4093028;28;19929;-40
2024/02/17 13:57:59;;;;;;;;;;;19.20;69.40;;;;;;4101356;28;19933;-41
2024/02/17 14:00:41;;;;;;;;;;;19.20;69.90;;;;;;4094574;28;19985;-41
2024/02/17 14:03:24;;;;;;;;;;;19.20;70.00;;;;;;4091973;28;19941;-46
2024/02/17 14:06:08;;;;;;;;;;;19.10;70.80;;;;;;4087204;28;19933;-46
2024/02/17 14:08:50;;;;;;;;;;;19.00;70.30;;;;;;4064733;28;19935;-45
2024/02/17 14:11:31;;;;;;;;;;;19.00;71.50;;;;;;4087881;28;20384;-45
2024/02/17 14:14:12;;;;;;;;;;;18.90;70.60;;;;;;4087321;28;20028;-48
2024/02/17 14:16:54;;;;;;;;;;;18.90;70.80;;;;;;4087656;28;19964;-45
2024/02/17 14:19:40;;;;;;;;;;;18.80;71.00;;;;;;4092296;28;20430;-45
2024/02/17 14:22:24;;;;;;;;;;;18.80;71.30;;;;;;4092413;28;20879;-45
2024/02/17 14:25:05;;;;;;;;;;;18.90;71.50;;;;;;4075456;28;19937;-45
2024/02/17 14:27:46;;;;;;;;;;;19.00;71.00;;;;;;4087094;28;19993;-45
2024/02/17 14:30:28;;;;;;;;;;;19.20;70.20;;;;;;4093068;28;20040;-45
2024/02/17 14:33:10;;;;;;;;;;;19.20;69.10;;;;;;4097923;28;19933;-46
2024/02/17 14:35:52;;;;;;;;;;;19.30;69.00;;;;;;4102218;28;19929;-47
2024/02/17 14:38:33;;;;;;;;;;;19.40;68.70;;;;;;4102460;28;20003;-45
2024/02/17 14:41:14;;;;;;;;;;;19.50;67.80;;;;;;4080581;28;19949;-41
2024/02/17 14:43:55;;;;;;;;;;;19.50;66.60;;;;;;4086814;28;20315;-41
2024/02/17 14:46:39;;;;;;;;;;;19.50;66.60;;;;;;4089707;28;19996;-41
2024/02/17 14:49:20;;;;;;;;;;;19.50;66.00;;;;;;4085575;28;20263;-40
2024/02/17 14:52:02;;;;;;;;;;;19.40;65.30;;;;;;4086644;28;19972;-41
2024/02/17 14:54:43;;;;;;;;;;;19.50;64.60;;;;;;4087681;28;19937;-45
2024/02/17 14:57:24;;;;;;;;;;;19.40;64.90;;;;;;4093023;28;20093;-41
2024/02/17 15:00:08;;;;;;;;;;;19.30;64.80;;;;;;4079216;28;20066;-41
2024/02/17 15:02:49;;;;;;;;;;;19.30;65.10;;;;;;4086997;28;19971;-41
2024/02/17 15:05:30;;;;;;;;;;;19.30;64.80;;;;;;4088303;28;20078;-41
2024/02/17 15:08:12;;;;;;;;;;;19.30;64.20;;;;;;4100847;28;19936;-42
2024/02/17 15:10:53;;;;;;;;;;;19.30;63.90;;;;;;4092861;28;19968;-41
2024/02/17 15:13:34;;;;;;;;;;;19.20;64.20;;;;;;4092501;28;19929;-41
2024/02/17 15:16:14;;;;;;;;;;;19.20;64.10;;;;;;4099397;28;19933;-41
2024/02/17 15:18:55;;;;;;;;;;;19.20;64.80;;;;;;4092334;28;19959;-41
2024/02/17 15:21:36;;;;;;;;;;;19.10;64.50;;;;;;4074247;28;19930;-44
2024/02/17 15:24:18;;;;;;;;;;;19.00;64.80;;;;;;4082090;28;20395;-42
2024/02/17 15:26:59;;;;;;;;;;;19.00;65.80;;;;;;4088644;28;20120;-45
2024/02/17 15:29:40;;;;;;;;;;;18.90;66.60;;;;;;4072424;29;20054;-44
2024/02/17 15:32:20;;;;;;;;;;;18.90;67.00;;;;;;4073226;29;19933;-41
2024/02/17 15:35:01;;;;;;;;;;;19.00;67.30;;;;;;4072519;29;19946;-41
2024/02/17 15:37:42;;;;;;;;;;;19.10;68.40;;;;;;4074005;28;20429;-41
2024/02/17 15:40:24;;;;;;;;;;;19.10;67.50;;;;;;4087945;28;20407;-41
2024/02/17 15:43:04;;;;;;;;;;;19.10;67.50;;;;;;4076880;28;19933;-41